sensor_id;sensor_type;location;lat;lon;timestamp;temperature;humidity
29453;DHT22;16424;50.956;5.320;2022-08-07T00:01:45;15.70;99.90
29453;DHT22;16424;50.956;5.320;2022-08-07T00:04:11;15.70;99.90
29453;DHT22;16424;50.956;5.320;2022-08-07T00:06:38;15.80;99.90
29453;DHT22;16424;50.956;5.320;2022-08-07T00:09:04;15.70;99.90
29453;DHT22;16424;50.956;5.320;2022-08-07T00:11:29;15.60;99.90
29453;DHT22;16424;50.956;5.320;2022-08-07T00:13:56;15.60;99.90
29453;DHT22;16424;50.956;5.320;2022-08-07T00:16:22;15.60;99.90
29453;DHT22;16424;50.956;5.320;2022-08-07T00:18:48;15.60;99.90
29453;DHT22;16424;50.956;5.320;2022-08-07T00:21:14;15.60;99.90
29453;DHT22;16424;50.956;5.320;2022-08-07T00:23:40;15.60;99.90
29453;DHT22;16424;50.956;5.320;2022-08-07T00:26:07;15.60;99.90
29453;DHT22;16424;50.956;5.320;2022-08-07T00:28:33;15.60;99.90
29453;DHT22;16424;50.956;5.320;2022-08-07T00:31:01;15.50;99.90
29453;DHT22;16424;50.956;5.320;2022-08-07T00:33:27;15.60;99.90
29453;DHT22;16424;50.956;5.320;2022-08-07T00:35:56;15.50;99.90
29453;DHT22;16424;50.956;5.320;2022-08-07T00:38:22;15.50;99.90
29453;DHT22;16424;50.956;5.320;2022-08-07T00:40:48;15.40;99.90
29453;DHT22;16424;50.956;5.320;2022-08-07T00:43:14;15.30;99.90
29453;DHT22;16424;50.956;5.320;2022-08-07T00:45:41;15.20;99.90
29453;DHT22;16424;50.956;5.320;2022-08-07T00:48:08;15.10;99.90
29453;DHT22;16424;50.956;5.320;2022-08-07T00:50:35;15.10;99.90
29453;DHT22;16424;50.956;5.320;2022-08-07T00:53:00;15.00;99.90
29453;DHT22;16424;50.956;5.320;2022-08-07T00:55:27;15.00;99.90
29453;DHT22;16424;50.956;5.320;2022-08-07T00:57:54;14.90;99.90
29453;DHT22;16424;50.956;5.320;2022-08-07T01:00:20;14.90;99.90
29453;DHT22;16424;50.956;5.320;2022-08-07T01:02:45;14.80;99.90
29453;DHT22;16424;50.956;5.320;2022-08-07T01:05:11;14.90;99.90
29453;DHT22;16424;50.956;5.320;2022-08-07T01:07:38;14.80;99.90
29453;DHT22;16424;50.956;5.320;2022-08-07T01:10:04;14.60;99.90
29453;DHT22;16424;50.956;5.320;2022-08-07T01:12:31;14.60;99.90
29453;DHT22;16424;50.956;5.320;2022-08-07T01:14:57;14.70;99.90
29453;DHT22;16424;50.956;5.320;2022-08-07T01:17:24;14.80;99.90
29453;DHT22;16424;50.956;5.320;2022-08-07T01:19:53;14.90;99.90
29453;DHT22;16424;50.956;5.320;2022-08-07T01:22:20;14.90;99.90
29453;DHT22;16424;50.956;5.320;2022-08-07T01:24:47;14.90;99.90
29453;DHT22;16424;50.956;5.320;2022-08-07T01:27:12;14.80;99.90
29453;DHT22;16424;50.956;5.320;2022-08-07T01:29:40;14.80;99.90
29453;DHT22;16424;50.956;5.320;2022-08-07T01:32:06;14.90;99.90
29453;DHT22;16424;50.956;5.320;2022-08-07T01:34:32;14.90;99.90
29453;DHT22;16424;50.956;5.320;2022-08-07T01:36:59;14.90;99.90
29453;DHT22;16424;50.956;5.320;2022-08-07T01:39:26;14.80;99.90
29453;DHT22;16424;50.956;5.320;2022-08-07T01:41:52;14.70;99.90
29453;DHT22;16424;50.956;5.320;2022-08-07T01:44:18;14.70;99.90
29453;DHT22;16424;50.956;5.320;2022-08-07T01:46:44;14.70;99.90
29453;DHT22;16424;50.956;5.320;2022-08-07T01:49:11;14.50;99.90
29453;DHT22;16424;50.956;5.320;2022-08-07T01:51:37;14.50;99.90
29453;DHT22;16424;50.956;5.320;2022-08-07T01:54:07;14.40;99.90
29453;DHT22;16424;50.956;5.320;2022-08-07T01:56:45;14.40;99.90
29453;DHT22;16424;50.956;5.320;2022-08-07T01:59:20;14.30;99.90
29453;DHT22;16424;50.956;5.320;2022-08-07T02:01:55;14.20;99.90
29453;DHT22;16424;50.956;5.320;2022-08-07T02:04:26;14.20;99.90
29453;DHT22;16424;50.956;5.320;2022-08-07T02:06:54;14.10;99.90
29453;DHT22;16424;50.956;5.320;2022-08-07T02:09:21;14.10;99.90
29453;DHT22;16424;50.956;5.320;2022-08-07T02:11:49;14.10;99.90
29453;DHT22;16424;50.956;5.320;2022-08-07T02:14:16;14.00;99.90
29453;DHT22;16424;50.956;5.320;2022-08-07T02:16:44;14.00;99.90
29453;DHT22;16424;50.956;5.320;2022-08-07T02:19:12;14.00;99.90
29453;DHT22;16424;50.956;5.320;2022-08-07T02:21:40;14.00;99.90
29453;DHT22;16424;50.956;5.320;2022-08-07T02:24:06;14.10;99.90
29453;DHT22;16424;50.956;5.320;2022-08-07T02:26:36;14.20;99.90
29453;DHT22;16424;50.956;5.320;2022-08-07T02:29:05;14.20;99.90
29453;DHT22;16424;50.956;5.320;2022-08-07T02:31:31;14.10;99.90
29453;DHT22;16424;50.956;5.320;2022-08-07T02:34:02;14.00;99.90
29453;DHT22;16424;50.956;5.320;2022-08-07T02:36:29;14.00;99.90
29453;DHT22;16424;50.956;5.320;2022-08-07T02:38:58;13.90;99.90
29453;DHT22;16424;50.956;5.320;2022-08-07T02:41:26;13.80;99.90
29453;DHT22;16424;50.956;5.320;2022-08-07T02:43:53;13.70;99.90
29453;DHT22;16424;50.956;5.320;2022-08-07T02:46:22;13.70;99.90
29453;DHT22;16424;50.956;5.320;2022-08-07T02:48:49;13.80;99.90
29453;DHT22;16424;50.956;5.320;2022-08-07T02:51:17;13.80;99.90
29453;DHT22;16424;50.956;5.320;2022-08-07T02:53:44;13.90;99.90
29453;DHT22;16424;50.956;5.320;2022-08-07T02:56:17;13.90;99.90
29453;DHT22;16424;50.956;5.320;2022-08-07T02:58:45;13.80;99.90
29453;DHT22;16424;50.956;5.320;2022-08-07T03:01:11;13.80;99.90
29453;DHT22;16424;50.956;5.320;2022-08-07T03:03:37;13.80;99.90
29453;DHT22;16424;50.956;5.320;2022-08-07T03:06:03;13.70;99.90
29453;DHT22;16424;50.956;5.320;2022-08-07T03:08:29;13.60;99.90
29453;DHT22;16424;50.956;5.320;2022-08-07T03:10:57;13.50;99.90
29453;DHT22;16424;50.956;5.320;2022-08-07T03:13:23;13.40;99.90
29453;DHT22;16424;50.956;5.320;2022-08-07T03:15:50;13.30;99.90
29453;DHT22;16424;50.956;5.320;2022-08-07T03:18:16;13.30;99.90
29453;DHT22;16424;50.956;5.320;2022-08-07T03:20:42;13.20;99.90
29453;DHT22;16424;50.956;5.320;2022-08-07T03:23:09;13.20;99.90
29453;DHT22;16424;50.956;5.320;2022-08-07T03:25:38;13.10;99.90
29453;DHT22;16424;50.956;5.320;2022-08-07T03:28:09;13.10;99.90
29453;DHT22;16424;50.956;5.320;2022-08-07T03:30:36;13.10;99.90
29453;DHT22;16424;50.956;5.320;2022-08-07T03:33:03;13.20;99.90
29453;DHT22;16424;50.956;5.320;2022-08-07T03:35:30;13.20;99.90
29453;DHT22;16424;50.956;5.320;2022-08-07T03:37:58;13.20;99.90
29453;DHT22;16424;50.956;5.320;2022-08-07T03:40:27;13.10;99.90
29453;DHT22;16424;50.956;5.320;2022-08-07T03:42:53;13.30;99.90
29453;DHT22;16424;50.956;5.320;2022-08-07T03:45:23;13.10;99.90
29453;DHT22;16424;50.956;5.320;2022-08-07T03:47:50;13.00;99.90
29453;DHT22;16424;50.956;5.320;2022-08-07T03:50:18;13.10;99.90
29453;DHT22;16424;50.956;5.320;2022-08-07T03:52:47;12.90;99.90
29453;DHT22;16424;50.956;5.320;2022-08-07T03:55:13;12.90;99.90
29453;DHT22;16424;50.956;5.320;2022-08-07T03:57:40;12.90;99.90
29453;DHT22;16424;50.956;5.320;2022-08-07T04:00:07;12.90;99.90
29453;DHT22;16424;50.956;5.320;2022-08-07T04:02:33;12.90;99.90
29453;DHT22;16424;50.956;5.320;2022-08-07T04:04:59;12.90;99.90
29453;DHT22;16424;50.956;5.320;2022-08-07T04:07:24;12.90;99.90
29453;DHT22;16424;50.956;5.320;2022-08-07T04:09:51;12.90;99.90
29453;DHT22;16424;50.956;5.320;2022-08-07T04:12:17;12.90;99.90
29453;DHT22;16424;50.956;5.320;2022-08-07T04:14:44;12.80;99.90
29453;DHT22;16424;50.956;5.320;2022-08-07T04:17:10;12.80;99.90
29453;DHT22;16424;50.956;5.320;2022-08-07T04:19:39;12.70;99.90
29453;DHT22;16424;50.956;5.320;2022-08-07T04:22:05;12.60;99.90
29453;DHT22;16424;50.956;5.320;2022-08-07T04:24:32;12.60;99.90
29453;DHT22;16424;50.956;5.320;2022-08-07T04:26:58;12.60;99.90
29453;DHT22;16424;50.956;5.320;2022-08-07T04:29:27;12.60;99.90
29453;DHT22;16424;50.956;5.320;2022-08-07T04:31:53;12.60;99.90
29453;DHT22;16424;50.956;5.320;2022-08-07T04:34:20;12.60;99.90
29453;DHT22;16424;50.956;5.320;2022-08-07T04:36:46;12.60;99.90
29453;DHT22;16424;50.956;5.320;2022-08-07T04:39:12;12.60;99.90
29453;DHT22;16424;50.956;5.320;2022-08-07T04:41:38;12.70;99.90
29453;DHT22;16424;50.956;5.320;2022-08-07T04:44:04;12.70;99.90
29453;DHT22;16424;50.956;5.320;2022-08-07T04:46:37;12.80;99.90
29453;DHT22;16424;50.956;5.320;2022-08-07T04:49:16;12.90;99.90
29453;DHT22;16424;50.956;5.320;2022-08-07T04:54:43;13.00;99.90
29453;DHT22;16424;50.956;5.320;2022-08-07T04:57:35;13.10;99.90
29453;DHT22;16424;50.956;5.320;2022-08-07T05:00:08;13.30;99.90
29453;DHT22;16424;50.956;5.320;2022-08-07T05:03:24;13.40;99.90
29453;DHT22;16424;50.956;5.320;2022-08-07T05:05:44;13.50;99.90
29453;DHT22;16424;50.956;5.320;2022-08-07T05:08:19;13.50;99.90
29453;DHT22;16424;50.956;5.320;2022-08-07T05:10:55;13.60;99.90
29453;DHT22;16424;50.956;5.320;2022-08-07T05:13:35;13.60;99.90
29453;DHT22;16424;50.956;5.320;2022-08-07T05:16:06;13.70;99.90
29453;DHT22;16424;50.956;5.320;2022-08-07T05:18:40;13.80;99.90
29453;DHT22;16424;50.956;5.320;2022-08-07T05:21:11;13.90;99.90
29453;DHT22;16424;50.956;5.320;2022-08-07T05:23:39;14.30;99.90
29453;DHT22;16424;50.956;5.320;2022-08-07T05:26:10;15.00;99.90
29453;DHT22;16424;50.956;5.320;2022-08-07T05:28:37;16.10;99.90
29453;DHT22;16424;50.956;5.320;2022-08-07T05:31:04;17.10;99.90
29453;DHT22;16424;50.956;5.320;2022-08-07T05:33:33;18.10;99.90
29453;DHT22;16424;50.956;5.320;2022-08-07T05:36:00;19.10;99.90
29453;DHT22;16424;50.956;5.320;2022-08-07T05:38:29;19.80;99.90
29453;DHT22;16424;50.956;5.320;2022-08-07T05:40:55;20.30;99.90
29453;DHT22;16424;50.956;5.320;2022-08-07T05:43:21;20.80;99.90
29453;DHT22;16424;50.956;5.320;2022-08-07T05:45:48;21.50;99.90
29453;DHT22;16424;50.956;5.320;2022-08-07T05:48:14;21.80;99.90
29453;DHT22;16424;50.956;5.320;2022-08-07T05:50:41;21.80;99.90
29453;DHT22;16424;50.956;5.320;2022-08-07T05:53:07;22.00;99.90
29453;DHT22;16424;50.956;5.320;2022-08-07T05:55:33;22.30;99.90
29453;DHT22;16424;50.956;5.320;2022-08-07T05:58:00;22.70;99.90
29453;DHT22;16424;50.956;5.320;2022-08-07T06:00:28;23.30;99.90
29453;DHT22;16424;50.956;5.320;2022-08-07T06:02:55;23.60;99.90
29453;DHT22;16424;50.956;5.320;2022-08-07T06:05:23;24.10;99.90
29453;DHT22;16424;50.956;5.320;2022-08-07T06:07:53;24.50;99.90
29453;DHT22;16424;50.956;5.320;2022-08-07T06:10:20;25.00;99.60
29453;DHT22;16424;50.956;5.320;2022-08-07T06:12:46;25.40;98.70
29453;DHT22;16424;50.956;5.320;2022-08-07T06:15:14;25.50;97.90
29453;DHT22;16424;50.956;5.320;2022-08-07T06:17:41;25.60;97.90
29453;DHT22;16424;50.956;5.320;2022-08-07T06:20:08;25.90;97.40
29453;DHT22;16424;50.956;5.320;2022-08-07T06:22:35;26.30;96.90
29453;DHT22;16424;50.956;5.320;2022-08-07T06:25:02;26.40;96.40
29453;DHT22;16424;50.956;5.320;2022-08-07T06:27:28;26.50;96.00
29453;DHT22;16424;50.956;5.320;2022-08-07T06:29:53;26.70;95.90
29453;DHT22;16424;50.956;5.320;2022-08-07T06:32:19;27.00;95.40
29453;DHT22;16424;50.956;5.320;2022-08-07T06:34:45;27.20;94.90
29453;DHT22;16424;50.956;5.320;2022-08-07T06:37:11;27.30;94.10
29453;DHT22;16424;50.956;5.320;2022-08-07T06:39:36;27.10;94.00
29453;DHT22;16424;50.956;5.320;2022-08-07T06:42:19;27.20;94.10
29453;DHT22;16424;50.956;5.320;2022-08-07T06:44:47;27.50;93.90
29453;DHT22;16424;50.956;5.320;2022-08-07T06:47:14;27.70;93.70
29453;DHT22;16424;50.956;5.320;2022-08-07T06:49:40;28.30;92.90
29453;DHT22;16424;50.956;5.320;2022-08-07T06:52:07;28.60;91.90
29453;DHT22;16424;50.956;5.320;2022-08-07T06:54:33;29.00;91.60
29453;DHT22;16424;50.956;5.320;2022-08-07T06:56:59;29.50;91.00
29453;DHT22;16424;50.956;5.320;2022-08-07T06:59:30;29.60;90.80
29453;DHT22;16424;50.956;5.320;2022-08-07T07:01:56;29.60;90.50
29453;DHT22;16424;50.956;5.320;2022-08-07T07:04:24;29.50;90.30
29453;DHT22;16424;50.956;5.320;2022-08-07T07:06:50;29.00;90.40
29453;DHT22;16424;50.956;5.320;2022-08-07T07:09:26;29.00;90.50
29453;DHT22;16424;50.956;5.320;2022-08-07T07:12:13;29.20;90.60
29453;DHT22;16424;50.956;5.320;2022-08-07T07:14:55;29.00;90.60
29453;DHT22;16424;50.956;5.320;2022-08-07T07:17:32;29.00;90.60
29453;DHT22;16424;50.956;5.320;2022-08-07T07:20:03;29.00;90.30
29453;DHT22;16424;50.956;5.320;2022-08-07T07:22:31;29.30;90.00
29453;DHT22;16424;50.956;5.320;2022-08-07T07:25:00;29.20;90.10
29453;DHT22;16424;50.956;5.320;2022-08-07T07:27:29;29.60;90.20
29453;DHT22;16424;50.956;5.320;2022-08-07T07:29:59;30.40;88.90
29453;DHT22;16424;50.956;5.320;2022-08-07T07:32:28;30.90;88.10
29453;DHT22;16424;50.956;5.320;2022-08-07T07:34:56;30.90;85.70
29453;DHT22;16424;50.956;5.320;2022-08-07T07:37:24;30.20;85.60
29453;DHT22;16424;50.956;5.320;2022-08-07T07:39:52;30.10;87.60
29453;DHT22;16424;50.956;5.320;2022-08-07T07:42:21;30.40;87.10
29453;DHT22;16424;50.956;5.320;2022-08-07T07:44:47;30.70;86.00
29453;DHT22;16424;50.956;5.320;2022-08-07T07:47:15;31.10;84.50
29453;DHT22;16424;50.956;5.320;2022-08-07T07:49:43;31.50;83.70
29453;DHT22;16424;50.956;5.320;2022-08-07T07:52:12;31.40;83.10
29453;DHT22;16424;50.956;5.320;2022-08-07T07:54:42;31.30;83.30
29453;DHT22;16424;50.956;5.320;2022-08-07T07:57:08;30.70;83.60
29453;DHT22;16424;50.956;5.320;2022-08-07T07:59:37;30.70;84.50
29453;DHT22;16424;50.956;5.320;2022-08-07T08:02:03;30.90;84.30
29453;DHT22;16424;50.956;5.320;2022-08-07T08:04:31;30.70;82.30
29453;DHT22;16424;50.956;5.320;2022-08-07T08:06:59;30.50;83.70
29453;DHT22;16424;50.956;5.320;2022-08-07T08:09:26;30.80;83.50
29453;DHT22;16424;50.956;5.320;2022-08-07T08:11:53;31.30;83.10
29453;DHT22;16424;50.956;5.320;2022-08-07T08:14:19;31.70;82.00
29453;DHT22;16424;50.956;5.320;2022-08-07T08:16:46;31.90;81.50
29453;DHT22;16424;50.956;5.320;2022-08-07T08:19:16;31.80;80.90
29453;DHT22;16424;50.956;5.320;2022-08-07T08:21:47;32.10;80.40
29453;DHT22;16424;50.956;5.320;2022-08-07T08:24:40;30.80;82.00
29453;DHT22;16424;50.956;5.320;2022-08-07T08:27:28;31.50;81.80
29453;DHT22;16424;50.956;5.320;2022-08-07T08:30:06;32.00;80.10
29453;DHT22;16424;50.956;5.320;2022-08-07T08:32:42;32.60;79.40
29453;DHT22;16424;50.956;5.320;2022-08-07T08:35:14;33.00;78.30
29453;DHT22;16424;50.956;5.320;2022-08-07T08:37:42;33.20;76.40
29453;DHT22;16424;50.956;5.320;2022-08-07T08:40:15;33.10;76.40
29453;DHT22;16424;50.956;5.320;2022-08-07T08:42:51;33.00;76.90
29453;DHT22;16424;50.956;5.320;2022-08-07T08:50:48;32.80;75.80
29453;DHT22;16424;50.956;5.320;2022-08-07T08:56:29;33.40;74.50
29453;DHT22;16424;50.956;5.320;2022-08-07T08:59:03;34.00;73.50
29453;DHT22;16424;50.956;5.320;2022-08-07T09:01:48;33.70;73.10
29453;DHT22;16424;50.956;5.320;2022-08-07T09:20:34;31.80;71.60
29453;DHT22;16424;50.956;5.320;2022-08-07T09:23:25;32.10;71.50
29453;DHT22;16424;50.956;5.320;2022-08-07T09:26:09;32.40;70.70
29453;DHT22;16424;50.956;5.320;2022-08-07T09:28:46;31.80;70.20
29453;DHT22;16424;50.956;5.320;2022-08-07T09:31:41;31.70;70.90
29453;DHT22;16424;50.956;5.320;2022-08-07T09:34:23;31.50;70.50
29453;DHT22;16424;50.956;5.320;2022-08-07T09:37:03;30.90;71.20
29453;DHT22;16424;50.956;5.320;2022-08-07T09:39:51;30.20;73.30
29453;DHT22;16424;50.956;5.320;2022-08-07T09:48:19;27.50;75.50
29453;DHT22;16424;50.956;5.320;2022-08-07T09:53:16;26.50;78.60
29453;DHT22;16424;50.956;5.320;2022-08-07T09:58:45;26.00;76.70
29453;DHT22;16424;50.956;5.320;2022-08-07T10:04:04;25.60;77.80
29453;DHT22;16424;50.956;5.320;2022-08-07T10:10:02;25.90;76.80
29453;DHT22;16424;50.956;5.320;2022-08-07T10:12:49;25.90;78.80
29453;DHT22;16424;50.956;5.320;2022-08-07T10:32:39;25.40;79.00
29453;DHT22;16424;50.956;5.320;2022-08-07T10:35:40;25.40;78.80
29453;DHT22;16424;50.956;5.320;2022-08-07T10:38:34;25.20;78.50
29453;DHT22;16424;50.956;5.320;2022-08-07T10:46:25;24.50;81.10
29453;DHT22;16424;50.956;5.320;2022-08-07T10:49:14;24.60;79.80
29453;DHT22;16424;50.956;5.320;2022-08-07T10:52:07;24.80;80.50
29453;DHT22;16424;50.956;5.320;2022-08-07T10:54:42;25.20;81.60
29453;DHT22;16424;50.956;5.320;2022-08-07T11:00:08;25.30;79.10
29453;DHT22;16424;50.956;5.320;2022-08-07T11:02:40;25.60;79.80
29453;DHT22;16424;50.956;5.320;2022-08-07T11:10:42;25.20;78.60
29453;DHT22;16424;50.956;5.320;2022-08-07T11:16:09;25.10;80.60
29453;DHT22;16424;50.956;5.320;2022-08-07T11:18:38;25.20;79.80
29453;DHT22;16424;50.956;5.320;2022-08-07T11:24:27;25.80;77.80
29453;DHT22;16424;50.956;5.320;2022-08-07T11:29:37;25.60;77.80
29453;DHT22;16424;50.956;5.320;2022-08-07T11:34:55;26.10;77.30
29453;DHT22;16424;50.956;5.320;2022-08-07T11:37:55;26.20;77.60
29453;DHT22;16424;50.956;5.320;2022-08-07T11:43:49;25.60;78.70
29453;DHT22;16424;50.956;5.320;2022-08-07T12:05:07;26.20;76.60
29453;DHT22;16424;50.956;5.320;2022-08-07T12:07:43;26.40;74.60
29453;DHT22;16424;50.956;5.320;2022-08-07T12:10:18;26.20;75.00
29453;DHT22;16424;50.956;5.320;2022-08-07T12:15:25;26.00;77.10
29453;DHT22;16424;50.956;5.320;2022-08-07T12:18:43;26.20;75.50
29453;DHT22;16424;50.956;5.320;2022-08-07T12:20:57;26.30;73.90
29453;DHT22;16424;50.956;5.320;2022-08-07T12:26:33;26.50;72.20
29453;DHT22;16424;50.956;5.320;2022-08-07T12:29:31;26.40;71.40
29453;DHT22;16424;50.956;5.320;2022-08-07T12:34:44;26.10;73.20
29453;DHT22;16424;50.956;5.320;2022-08-07T12:37:14;26.30;73.30
29453;DHT22;16424;50.956;5.320;2022-08-07T12:39:44;26.10;71.80
29453;DHT22;16424;50.956;5.320;2022-08-07T12:42:10;26.10;72.80
29453;DHT22;16424;50.956;5.320;2022-08-07T12:44:42;26.00;74.00
29453;DHT22;16424;50.956;5.320;2022-08-07T12:52:47;26.80;72.10
29453;DHT22;16424;50.956;5.320;2022-08-07T12:55:24;26.90;71.50
29453;DHT22;16424;50.956;5.320;2022-08-07T12:57:52;26.90;73.70
29453;DHT22;16424;50.956;5.320;2022-08-07T13:00:26;26.60;72.10
29453;DHT22;16424;50.956;5.320;2022-08-07T13:06:08;26.50;73.60
29453;DHT22;16424;50.956;5.320;2022-08-07T13:17:03;26.50;72.30
29453;DHT22;16424;50.956;5.320;2022-08-07T13:19:45;26.50;73.20
29453;DHT22;16424;50.956;5.320;2022-08-07T13:22:26;26.50;72.50
29453;DHT22;16424;50.956;5.320;2022-08-07T13:25:00;26.60;72.70
29453;DHT22;16424;50.956;5.320;2022-08-07T13:30:47;26.60;72.80
29453;DHT22;16424;50.956;5.320;2022-08-07T13:33:25;26.70;72.40
29453;DHT22;16424;50.956;5.320;2022-08-07T13:36:00;26.70;74.20
29453;DHT22;16424;50.956;5.320;2022-08-07T13:41:19;27.00;73.00
29453;DHT22;16424;50.956;5.320;2022-08-07T13:43:46;27.20;73.00
29453;DHT22;16424;50.956;5.320;2022-08-07T13:46:15;27.40;73.90
29453;DHT22;16424;50.956;5.320;2022-08-07T13:48:48;27.50;73.10
29453;DHT22;16424;50.956;5.320;2022-08-07T13:51:15;27.30;73.50
29453;DHT22;16424;50.956;5.320;2022-08-07T13:53:50;27.30;73.40
29453;DHT22;16424;50.956;5.320;2022-08-07T13:56:20;27.10;73.20
29453;DHT22;16424;50.956;5.320;2022-08-07T13:58:48;27.10;73.60
29453;DHT22;16424;50.956;5.320;2022-08-07T14:01:36;27.10;74.70
29453;DHT22;16424;50.956;5.320;2022-08-07T14:04:09;27.20;74.80
29453;DHT22;16424;50.956;5.320;2022-08-07T14:06:38;27.00;74.00
29453;DHT22;16424;50.956;5.320;2022-08-07T14:09:06;26.90;73.70
29453;DHT22;16424;50.956;5.320;2022-08-07T14:11:43;26.70;74.00
29453;DHT22;16424;50.956;5.320;2022-08-07T14:14:11;26.60;74.30
29453;DHT22;16424;50.956;5.320;2022-08-07T14:16:42;26.70;74.80
29453;DHT22;16424;50.956;5.320;2022-08-07T14:19:21;26.70;73.70
29453;DHT22;16424;50.956;5.320;2022-08-07T14:21:50;26.80;72.40
29453;DHT22;16424;50.956;5.320;2022-08-07T14:24:25;26.80;72.20
29453;DHT22;16424;50.956;5.320;2022-08-07T14:26:59;26.70;73.20
29453;DHT22;16424;50.956;5.320;2022-08-07T14:29:29;26.80;73.90
29453;DHT22;16424;50.956;5.320;2022-08-07T14:32:02;26.90;73.30
29453;DHT22;16424;50.956;5.320;2022-08-07T14:34:31;26.90;72.80
29453;DHT22;16424;50.956;5.320;2022-08-07T14:37:02;26.90;71.20
29453;DHT22;16424;50.956;5.320;2022-08-07T14:39:30;27.00;72.70
29453;DHT22;16424;50.956;5.320;2022-08-07T14:42:00;26.70;71.90
29453;DHT22;16424;50.956;5.320;2022-08-07T14:44:28;26.50;72.60
29453;DHT22;16424;50.956;5.320;2022-08-07T14:46:56;26.80;74.30
29453;DHT22;16424;50.956;5.320;2022-08-07T14:49:33;27.00;72.30
29453;DHT22;16424;50.956;5.320;2022-08-07T14:52:01;27.10;72.20
29453;DHT22;16424;50.956;5.320;2022-08-07T14:54:32;27.10;71.10
29453;DHT22;16424;50.956;5.320;2022-08-07T14:57:00;27.00;70.80
29453;DHT22;16424;50.956;5.320;2022-08-07T14:59:34;27.10;71.50
29453;DHT22;16424;50.956;5.320;2022-08-07T15:02:11;27.00;71.80
29453;DHT22;16424;50.956;5.320;2022-08-07T15:04:43;26.70;72.40
29453;DHT22;16424;50.956;5.320;2022-08-07T15:07:10;26.70;74.00
29453;DHT22;16424;50.956;5.320;2022-08-07T15:09:42;26.80;73.80
29453;DHT22;16424;50.956;5.320;2022-08-07T15:12:14;26.70;72.90
29453;DHT22;16424;50.956;5.320;2022-08-07T15:15:00;26.70;73.00
29453;DHT22;16424;50.956;5.320;2022-08-07T15:17:32;26.60;72.80
29453;DHT22;16424;50.956;5.320;2022-08-07T15:20:04;26.70;73.70
29453;DHT22;16424;50.956;5.320;2022-08-07T15:22:46;26.70;73.00
29453;DHT22;16424;50.956;5.320;2022-08-07T15:25:17;26.50;73.40
29453;DHT22;16424;50.956;5.320;2022-08-07T15:27:47;26.70;74.70
29453;DHT22;16424;50.956;5.320;2022-08-07T15:30:13;26.60;75.20
29453;DHT22;16424;50.956;5.320;2022-08-07T15:32:44;26.60;75.10
29453;DHT22;16424;50.956;5.320;2022-08-07T15:35:18;26.80;76.40
29453;DHT22;16424;50.956;5.320;2022-08-07T15:37:52;26.90;75.10
29453;DHT22;16424;50.956;5.320;2022-08-07T15:40:20;26.90;74.60
29453;DHT22;16424;50.956;5.320;2022-08-07T15:45:37;27.00;74.40
29453;DHT22;16424;50.956;5.320;2022-08-07T15:50:42;27.10;73.30
29453;DHT22;16424;50.956;5.320;2022-08-07T15:53:15;26.80;73.50
29453;DHT22;16424;50.956;5.320;2022-08-07T15:55:43;26.70;74.70
29453;DHT22;16424;50.956;5.320;2022-08-07T15:58:15;26.80;74.70
29453;DHT22;16424;50.956;5.320;2022-08-07T16:00:42;26.90;74.40
29453;DHT22;16424;50.956;5.320;2022-08-07T16:03:17;26.80;73.30
29453;DHT22;16424;50.956;5.320;2022-08-07T16:05:47;26.80;74.00
29453;DHT22;16424;50.956;5.320;2022-08-07T16:08:22;26.80;74.90
29453;DHT22;16424;50.956;5.320;2022-08-07T16:11:02;26.40;75.20
29453;DHT22;16424;50.956;5.320;2022-08-07T16:13:49;26.30;76.10
29453;DHT22;16424;50.956;5.320;2022-08-07T16:16:43;26.30;77.50
29453;DHT22;16424;50.956;5.320;2022-08-07T16:25:02;26.30;75.10
29453;DHT22;16424;50.956;5.320;2022-08-07T16:27:34;26.20;75.40
29453;DHT22;16424;50.956;5.320;2022-08-07T16:30:08;26.10;75.60
29453;DHT22;16424;50.956;5.320;2022-08-07T16:32:41;26.20;76.40
29453;DHT22;16424;50.956;5.320;2022-08-07T16:55:05;26.00;76.30
29453;DHT22;16424;50.956;5.320;2022-08-07T17:00:29;25.80;75.60
29453;DHT22;16424;50.956;5.320;2022-08-07T17:08:00;25.90;75.80
29453;DHT22;16424;50.956;5.320;2022-08-07T17:13:41;25.80;75.30
29453;DHT22;16424;50.956;5.320;2022-08-07T17:21:26;25.40;77.60
29453;DHT22;16424;50.956;5.320;2022-08-07T17:24:16;25.40;77.30
29453;DHT22;16424;50.956;5.320;2022-08-07T17:27:08;25.40;76.70
29453;DHT22;16424;50.956;5.320;2022-08-07T17:32:22;25.40;76.70
29453;DHT22;16424;50.956;5.320;2022-08-07T17:34:54;25.30;77.00
29453;DHT22;16424;50.956;5.320;2022-08-07T17:37:45;25.20;77.90
29453;DHT22;16424;50.956;5.320;2022-08-07T17:40:39;25.20;77.50
29453;DHT22;16424;50.956;5.320;2022-08-07T17:43:16;25.10;77.60
29453;DHT22;16424;50.956;5.320;2022-08-07T17:46:11;25.00;78.70
29453;DHT22;16424;50.956;5.320;2022-08-07T17:48:45;24.90;78.00
29453;DHT22;16424;50.956;5.320;2022-08-07T17:51:19;24.80;79.00
29453;DHT22;16424;50.956;5.320;2022-08-07T17:53:51;24.80;80.10
29453;DHT22;16424;50.956;5.320;2022-08-07T17:56:25;24.80;79.70
29453;DHT22;16424;50.956;5.320;2022-08-07T18:01:43;24.70;79.60
29453;DHT22;16424;50.956;5.320;2022-08-07T18:04:50;24.60;79.30
29453;DHT22;16424;50.956;5.320;2022-08-07T18:07:58;24.60;80.40
29453;DHT22;16424;50.956;5.320;2022-08-07T18:10:38;24.50;80.10
29453;DHT22;16424;50.956;5.320;2022-08-07T18:18:16;24.40;81.30
29453;DHT22;16424;50.956;5.320;2022-08-07T18:21:17;24.30;81.70
29453;DHT22;16424;50.956;5.320;2022-08-07T18:24:02;24.30;81.40
29453;DHT22;16424;50.956;5.320;2022-08-07T18:40:30;24.10;81.90
29453;DHT22;16424;50.956;5.320;2022-08-07T18:42:59;24.00;83.40
29453;DHT22;16424;50.956;5.320;2022-08-07T18:46:06;24.00;83.10
29453;DHT22;16424;50.956;5.320;2022-08-07T18:48:44;23.90;82.90
29453;DHT22;16424;50.956;5.320;2022-08-07T18:51:18;23.80;83.20
29453;DHT22;16424;50.956;5.320;2022-08-07T18:54:06;23.80;83.10
29453;DHT22;16424;50.956;5.320;2022-08-07T18:56:47;23.80;83.50
29453;DHT22;16424;50.956;5.320;2022-08-07T18:59:36;23.70;82.90
29453;DHT22;16424;50.956;5.320;2022-08-07T19:08:16;23.40;84.00
29453;DHT22;16424;50.956;5.320;2022-08-07T19:10:47;23.30;83.80
29453;DHT22;16424;50.956;5.320;2022-08-07T19:13:46;23.20;84.60
29453;DHT22;16424;50.956;5.320;2022-08-07T19:16:22;23.10;84.90
29453;DHT22;16424;50.956;5.320;2022-08-07T19:19:22;23.00;84.70
29453;DHT22;16424;50.956;5.320;2022-08-07T19:22:11;22.90;85.00
29453;DHT22;16424;50.956;5.320;2022-08-07T19:24:42;22.80;85.40
29453;DHT22;16424;50.956;5.320;2022-08-07T19:27:15;22.70;85.50
29453;DHT22;16424;50.956;5.320;2022-08-07T19:29:46;22.70;85.50
29453;DHT22;16424;50.956;5.320;2022-08-07T19:32:15;22.60;86.00
29453;DHT22;16424;50.956;5.320;2022-08-07T19:34:52;22.50;86.20
29453;DHT22;16424;50.956;5.320;2022-08-07T19:37:23;22.40;87.10
29453;DHT22;16424;50.956;5.320;2022-08-07T19:39:59;22.30;87.50